Time;durP1;ratioP1;P1;durP2;ratioP2;P2;SDS_P1;SDS_P2;PMS_P1;PMS_P2;Temp;Humidity;BMP_temperature;BMP_pressure;BME280_temperature;BME280_humidity;BME280_pressure;Samples;Min_cycle;Max_cycle;Signal;HPM_P1;HPM_P2
2023/08/03 00:01:47;;;;;;;4.13;1.93;;;;;;;;;;4953776;29;20237;-66
2023/08/03 00:04:31;;;;;;;3.87;2.10;;;;;;;;;;4953976;29;20178;-66
2023/08/03 00:06:58;;;;;;;5.00;1.90;;;;;;;;;;4953924;29;20658;-66
2023/08/03 00:09:46;;;;;;;2.93;1.80;;;;;;;;;;4953610;29;20217;-66
2023/08/03 00:12:13;;;;;;;4.13;1.67;;;;;;;;;;4952565;29;20198;-66
2023/08/03 00:14:39;;;;;;;5.90;1.70;;;;;;;;;;4954025;29;20965;-66
2023/08/03 00:17:07;;;;;;;3.60;1.70;;;;;;;;;;4953869;29;20198;-66
2023/08/03 00:19:34;;;;;;;6.40;1.80;;;;;;;;;;4952376;29;20249;-67
2023/08/03 00:22:01;;;;;;;2.23;1.70;;;;;;;;;;4953678;29;20234;-66
2023/08/03 00:24:27;;;;;;;3.90;1.73;;;;;;;;;;4952250;29;20553;-65
2023/08/03 00:26:54;;;;;;;3.07;1.70;;;;;;;;;;4953619;29;20258;-66
2023/08/03 00:29:20;;;;;;;3.77;1.50;;;;;;;;;;4953350;29;20178;-66
2023/08/03 00:31:48;;;;;;;3.00;1.60;;;;;;;;;;4953444;29;20193;-66
2023/08/03 00:34:14;;;;;;;6.03;1.80;;;;;;;;;;4935688;29;20673;-66
2023/08/03 00:36:41;;;;;;;4.00;1.73;;;;;;;;;;4953213;29;20174;-66
2023/08/03 00:39:08;;;;;;;3.37;2.00;;;;;;;;;;4953182;29;20182;-66
2023/08/03 00:41:34;;;;;;;2.57;1.87;;;;;;;;;;4953392;29;20202;-66
2023/08/03 00:44:01;;;;;;;2.90;1.87;;;;;;;;;;4951513;29;20284;-66
2023/08/03 00:46:28;;;;;;;3.40;1.60;;;;;;;;;;4935650;28;20570;-66
2023/08/03 00:48:54;;;;;;;3.80;1.73;;;;;;;;;;4935696;29;20204;-67
2023/08/03 00:51:21;;;;;;;3.43;2.07;;;;;;;;;;4920031;29;20214;-66
2023/08/03 00:53:50;;;;;;;2.73;1.90;;;;;;;;;;4950650;28;20557;-67
2023/08/03 00:56:17;;;;;;;3.90;1.93;;;;;;;;;;4933676;29;20179;-67
2023/08/03 00:59:02;;;;;;;4.87;1.73;;;;;;;;;;4933397;29;20185;-66
2023/08/03 01:01:29;;;;;;;6.07;2.27;;;;;;;;;;4916810;29;20608;-66
2023/08/03 01:04:13;;;;;;;3.63;1.70;;;;;;;;;;4934761;29;20226;-66
2023/08/03 01:06:39;;;;;;;5.77;2.03;;;;;;;;;;4934227;29;21017;-66
2023/08/03 01:09:07;;;;;;;4.63;2.13;;;;;;;;;;4934370;29;20555;-67
2023/08/03 01:43:56;;;;;;;2.90;1.80;;;;;;;;;;4933376;29;20176;-66
2023/08/03 01:46:22;;;;;;;6.33;1.80;;;;;;;;;;4931258;29;20282;-67
2023/08/03 01:48:49;;;;;;;3.30;1.93;;;;;;;;;;4932992;29;20258;-66
2023/08/03 01:51:15;;;;;;;5.70;1.83;;;;;;;;;;4932773;29;20234;-67
2023/08/03 01:53:42;;;;;;;2.77;2.07;;;;;;;;;;4916039;29;20193;-67
2023/08/03 01:56:09;;;;;;;3.93;2.10;;;;;;;;;;4933711;29;20200;-67
2023/08/03 01:58:36;;;;;;;4.30;2.20;;;;;;;;;;4934381;29;20229;-67
2023/08/03 02:01:02;;;;;;;4.47;1.90;;;;;;;;;;4934452;29;20242;-67
2023/08/03 02:03:29;;;;;;;8.93;1.90;;;;;;;;;;4951762;29;20206;-67
2023/08/03 02:05:56;;;;;;;3.37;1.80;;;;;;;;;;4951671;29;20248;-67
2023/08/03 02:08:40;;;;;;;6.87;2.47;;;;;;;;;;4934775;29;20181;-67
2023/08/03 02:11:06;;;;;;;2.97;1.97;;;;;;;;;;4951561;29;20221;-66
2023/08/03 02:13:52;;;;;;;5.00;1.77;;;;;;;;;;4934251;29;20272;-66
2023/08/03 02:16:18;;;;;;;6.30;1.97;;;;;;;;;;4951663;29;20269;-67
2023/08/03 02:18:51;;;;;;;3.43;2.00;;;;;;;;;;4951797;29;20612;-67
2023/08/03 02:21:18;;;;;;;3.40;2.10;;;;;;;;;;4934178;29;20194;-67
2023/08/03 02:23:46;;;;;;;4.20;2.53;;;;;;;;;;4952195;28;20539;-67
2023/08/03 02:26:13;;;;;;;4.17;2.07;;;;;;;;;;4951326;29;20263;-67
2023/08/03 02:28:41;;;;;;;4.53;2.00;;;;;;;;;;4951306;29;20190;-66
2023/08/03 02:31:10;;;;;;;3.90;2.00;;;;;;;;;;4934202;29;20705;-66
2023/08/03 02:33:42;;;;;;;4.33;2.00;;;;;;;;;;4950149;28;20202;-67
2023/08/03 02:36:09;;;;;;;3.13;2.40;;;;;;;;;;4934200;29;20202;-67
2023/08/03 02:38:37;;;;;;;4.37;2.00;;;;;;;;;;4950622;28;20205;-67
2023/08/03 02:41:04;;;;;;;3.47;2.10;;;;;;;;;;4951544;29;20190;-67
2023/08/03 02:43:48;;;;;;;3.07;2.00;;;;;;;;;;4934292;29;20181;-66
2023/08/03 02:46:21;;;;;;;3.57;2.10;;;;;;;;;;4933781;29;20218;-67
2023/08/03 02:49:06;;;;;;;4.63;1.87;;;;;;;;;;4934100;29;20212;-67
2023/08/03 02:51:33;;;;;;;3.30;2.07;;;;;;;;;;4950997;29;20195;-66
2023/08/03 02:54:00;;;;;;;2.33;1.97;;;;;;;;;;4950295;28;20895;-67
2023/08/03 02:56:33;;;;;;;3.33;2.23;;;;;;;;;;4915107;29;20198;-67
2023/08/03 02:59:02;;;;;;;5.33;2.30;;;;;;;;;;4930529;29;20198;-67
2023/08/03 03:01:37;;;;;;;3.50;2.30;;;;;;;;;;4930823;29;20201;-67
2023/08/03 03:04:05;;;;;;;5.30;2.10;;;;;;;;;;4915075;29;20198;-67
2023/08/03 03:06:38;;;;;;;5.13;2.30;;;;;;;;;;4914819;29;20217;-66
2023/08/03 03:09:07;;;;;;;4.83;2.13;;;;;;;;;;4915044;29;20203;-67
2023/08/03 03:11:36;;;;;;;3.70;2.10;;;;;;;;;;4930605;29;20223;-67
2023/08/03 03:14:02;;;;;;;6.63;2.37;;;;;;;;;;4914630;29;20213;-67
2023/08/03 03:16:47;;;;;;;4.10;2.33;;;;;;;;;;4933188;29;20629;-67
2023/08/03 03:19:17;;;;;;;3.80;2.20;;;;;;;;;;4919425;29;20192;-67
2023/08/03 03:21:44;;;;;;;5.73;2.17;;;;;;;;;;4902735;29;20250;-67
2023/08/03 03:24:11;;;;;;;6.23;2.50;;;;;;;;;;4935546;29;20179;-67
2023/08/03 03:26:38;;;;;;;5.37;3.13;;;;;;;;;;4935738;29;20195;-67
2023/08/03 03:29:05;;;;;;;4.70;2.40;;;;;;;;;;4935483;29;20195;-67
2023/08/03 03:31:32;;;;;;;3.20;2.23;;;;;;;;;;4933924;29;20805;-67
2023/08/03 03:34:01;;;;;;;4.60;2.10;;;;;;;;;;4934017;29;20191;-67
2023/08/03 03:36:29;;;;;;;3.67;2.63;;;;;;;;;;4933752;29;20667;-67
2023/08/03 03:38:56;;;;;;;8.23;2.60;;;;;;;;;;4918523;29;20610;-67
2023/08/03 03:41:22;;;;;;;4.57;2.27;;;;;;;;;;4918058;29;20683;-67
2023/08/03 03:43:50;;;;;;;4.17;2.07;;;;;;;;;;4933844;29;20656;-66
2023/08/03 03:46:17;;;;;;;5.03;2.53;;;;;;;;;;4933707;29;20246;-66
2023/08/03 03:48:44;;;;;;;4.53;2.30;;;;;;;;;;4933260;29;20247;-67
2023/08/03 03:51:11;;;;;;;3.57;2.20;;;;;;;;;;4933515;29;20326;-67
2023/08/03 03:53:39;;;;;;;3.17;2.10;;;;;;;;;;4933984;29;20321;-66
2023/08/03 03:56:11;;;;;;;3.27;2.10;;;;;;;;;;4951907;29;20205;-67
2023/08/03 03:58:55;;;;;;;3.20;1.97;;;;;;;;;;4955501;29;20178;-67
2023/08/03 04:01:22;;;;;;;2.37;2.07;;;;;;;;;;4955018;29;20285;-67
2023/08/03 04:04:06;;;;;;;3.57;2.00;;;;;;;;;;4954215;29;20658;-67
2023/08/03 04:06:33;;;;;;;5.00;2.10;;;;;;;;;;4936430;29;20194;-67
2023/08/03 04:09:19;;;;;;;4.87;2.10;;;;;;;;;;4953894;29;20187;-67
2023/08/03 04:11:45;;;;;;;4.57;2.30;;;;;;;;;;4953693;29;20218;-67
2023/08/03 04:14:29;;;;;;;2.60;1.90;;;;;;;;;;4936629;29;20174;-67
2023/08/03 04:16:56;;;;;;;2.50;1.63;;;;;;;;;;4953481;29;20201;-67
2023/08/03 04:19:25;;;;;;;3.50;2.43;;;;;;;;;;4936351;29;20249;-66
2023/08/03 04:21:52;;;;;;;2.30;2.10;;;;;;;;;;4936117;29;20202;-67
2023/08/03 04:24:19;;;;;;;2.97;2.17;;;;;;;;;;4936167;29;20265;-67
2023/08/03 04:26:47;;;;;;;2.83;2.03;;;;;;;;;;4936300;28;20654;-67
2023/08/03 04:29:19;;;;;;;3.33;2.17;;;;;;;;;;4936310;29;20235;-67
2023/08/03 04:31:49;;;;;;;2.57;1.80;;;;;;;;;;4936054;29;20296;-67
2023/08/03 04:34:16;;;;;;;2.87;2.07;;;;;;;;;;4936455;29;20209;-67
2023/08/03 04:36:46;;;;;;;4.10;2.10;;;;;;;;;;4937182;29;20202;-66
2023/08/03 04:42:36;;;;;;;2.83;2.00;;;;;;;;;;4954813;29;20538;-68
2023/08/03 04:45:03;;;;;;;4.00;2.10;;;;;;;;;;4953561;29;20227;-67
2023/08/03 04:47:31;;;;;;;3.27;2.10;;;;;;;;;;4936007;29;20234;-67
2023/08/03 04:49:58;;;;;;;5.17;2.20;;;;;;;;;;4953014;29;20178;-67
2023/08/03 04:52:26;;;;;;;2.93;2.00;;;;;;;;;;4935703;29;20194;-67
2023/08/03 04:55:10;;;;;;;2.20;1.70;;;;;;;;;;4925343;29;20646;-67
2023/08/03 04:57:36;;;;;;;4.90;2.10;;;;;;;;;;4916522;29;20222;-68
2023/08/03 05:00:05;;;;;;;2.80;1.87;;;;;;;;;;4932696;29;20210;-68
2023/08/03 05:02:32;;;;;;;4.00;2.20;;;;;;;;;;4933922;29;20187;-67
2023/08/03 05:04:59;;;;;;;3.07;2.10;;;;;;;;;;4933710;29;20195;-67
2023/08/03 05:07:27;;;;;;;2.90;1.97;;;;;;;;;;4932313;29;20250;-67
2023/08/03 05:09:54;;;;;;;3.30;2.30;;;;;;;;;;4916372;29;20199;-67
2023/08/03 05:12:21;;;;;;;3.73;1.80;;;;;;;;;;4933017;29;20606;-68
2023/08/03 05:14:48;;;;;;;4.00;2.33;;;;;;;;;;4932655;29;20218;-67
2023/08/03 05:17:15;;;;;;;4.43;2.10;;;;;;;;;;4933454;29;20636;-67
2023/08/03 05:19:42;;;;;;;4.40;2.07;;;;;;;;;;4932291;29;20199;-67
2023/08/03 05:22:09;;;;;;;4.50;2.20;;;;;;;;;;4932126;29;20191;-68
2023/08/03 05:24:36;;;;;;;2.87;2.10;;;;;;;;;;4933267;29;20275;-68
2023/08/03 05:27:03;;;;;;;2.87;1.80;;;;;;;;;;4933140;29;20174;-67
2023/08/03 05:29:47;;;;;;;3.30;2.10;;;;;;;;;;4916640;29;20318;-67
2023/08/03 05:32:13;;;;;;;3.03;1.90;;;;;;;;;;4932846;29;20199;-67
2023/08/03 05:34:40;;;;;;;3.73;2.00;;;;;;;;;;4932974;29;20181;-67
2023/08/03 05:37:07;;;;;;;3.43;2.30;;;;;;;;;;4932774;29;20175;-67
2023/08/03 05:39:34;;;;;;;4.57;2.50;;;;;;;;;;4932228;29;20191;-66
2023/08/03 05:42:01;;;;;;;3.80;2.60;;;;;;;;;;4916140;29;20234;-66
2023/08/03 05:44:27;;;;;;;3.43;2.70;;;;;;;;;;4933003;29;20247;-66
2023/08/03 05:46:54;;;;;;;3.93;2.70;;;;;;;;;;4932364;29;20230;-67
2023/08/03 05:49:23;;;;;;;3.07;2.60;;;;;;;;;;4915647;29;20318;-67
2023/08/03 05:51:50;;;;;;;3.63;2.53;;;;;;;;;;4915937;29;20198;-67
2023/08/03 05:54:18;;;;;;;3.77;2.70;;;;;;;;;;4936581;29;20570;-66
2023/08/03 05:56:44;;;;;;;3.57;3.00;;;;;;;;;;4951995;29;20206;-67
2023/08/03 05:59:16;;;;;;;4.40;2.87;;;;;;;;;;4951844;29;20198;-66
2023/08/03 06:01:43;;;;;;;3.40;2.60;;;;;;;;;;4951920;29;20184;-66
2023/08/03 06:04:11;;;;;;;3.30;3.00;;;;;;;;;;4952420;29;20200;-67
2023/08/03 06:06:38;;;;;;;4.27;2.77;;;;;;;;;;4953228;29;20202;-67
2023/08/03 06:09:05;;;;;;;3.67;3.10;;;;;;;;;;4936244;29;20622;-67
2023/08/03 06:11:31;;;;;;;5.13;3.53;;;;;;;;;;4936331;29;20214;-67
2023/08/03 06:13:58;;;;;;;4.43;2.80;;;;;;;;;;4935724;29;20197;-67
2023/08/03 06:16:25;;;;;;;4.10;2.70;;;;;;;;;;4953094;29;20198;-67
2023/08/03 06:18:53;;;;;;;3.23;2.93;;;;;;;;;;4952822;29;20231;-67
2023/08/03 06:21:20;;;;;;;5.00;3.00;;;;;;;;;;4953108;28;20206;-67
2023/08/03 06:23:54;;;;;;;5.13;2.87;;;;;;;;;;4952850;29;20654;-67
2023/08/03 06:26:21;;;;;;;3.57;2.80;;;;;;;;;;4952882;29;20265;-67
2023/08/03 06:28:53;;;;;;;3.63;2.80;;;;;;;;;;4952865;29;20546;-67
2023/08/03 06:31:24;;;;;;;3.37;2.80;;;;;;;;;;4952706;29;20271;-67
2023/08/03 06:33:51;;;;;;;3.77;2.77;;;;;;;;;;4952819;29;20178;-67
2023/08/03 06:36:19;;;;;;;2.90;2.60;;;;;;;;;;4952891;29;20204;-67
2023/08/03 06:38:46;;;;;;;3.77;2.63;;;;;;;;;;4951568;29;20213;-67
2023/08/03 06:41:30;;;;;;;3.90;2.60;;;;;;;;;;4951890;29;20166;-66
2023/08/03 06:43:57;;;;;;;3.23;2.43;;;;;;;;;;4951085;29;20654;-67
2023/08/03 06:46:24;;;;;;;2.73;2.40;;;;;;;;;;4951274;29;20649;-67
2023/08/03 06:48:51;;;;;;;3.07;2.33;;;;;;;;;;4951066;28;20292;-67
2023/08/03 06:51:18;;;;;;;2.80;2.50;;;;;;;;;;4953624;28;20264;-67
2023/08/03 06:54:02;;;;;;;4.00;2.57;;;;;;;;;;4954033;29;20233;-67
2023/08/03 06:56:31;;;;;;;2.90;2.60;;;;;;;;;;4936117;29;20182;-67
2023/08/03 06:59:20;;;;;;;3.37;2.43;;;;;;;;;;4935842;29;20623;-67
2023/08/03 07:01:48;;;;;;;3.30;2.50;;;;;;;;;;4936393;29;20258;-67
2023/08/03 07:04:32;;;;;;;3.87;2.40;;;;;;;;;;4922661;29;20654;-68
2023/08/03 07:06:58;;;;;;;3.37;2.10;;;;;;;;;;4920320;29;20191;-67
2023/08/03 07:09:25;;;;;;;2.17;1.97;;;;;;;;;;4935629;29;20230;-67
2023/08/03 07:11:52;;;;;;;3.33;2.17;;;;;;;;;;4935589;29;20305;-67
2023/08/03 07:14:19;;;;;;;2.37;2.10;;;;;;;;;;4918376;29;20227;-67
2023/08/03 07:16:45;;;;;;;2.97;2.00;;;;;;;;;;4935401;29;20281;-67
2023/08/03 07:19:13;;;;;;;2.73;2.10;;;;;;;;;;4935150;29;20203;-68
2023/08/03 07:21:39;;;;;;;3.00;2.10;;;;;;;;;;4935555;29;20277;-67
2023/08/03 07:24:06;;;;;;;4.60;1.97;;;;;;;;;;4935211;29;20245;-68
2023/08/03 07:26:33;;;;;;;2.93;2.03;;;;;;;;;;4935512;29;20626;-67
2023/08/03 07:29:00;;;;;;;2.20;2.00;;;;;;;;;;4935196;29;20195;-68
2023/08/03 07:31:27;;;;;;;3.23;2.10;;;;;;;;;;4933773;29;20203;-68
2023/08/03 07:33:54;;;;;;;2.03;1.83;;;;;;;;;;4918295;29;20243;-68
2023/08/03 07:36:24;;;;;;;1.73;1.63;;;;;;;;;;4934960;29;20551;-67
2023/08/03 07:38:52;;;;;;;4.00;1.97;;;;;;;;;;4903548;29;20587;-67
2023/08/03 07:41:19;;;;;;;2.53;1.73;;;;;;;;;;4936552;29;20191;-67
2023/08/03 07:43:47;;;;;;;2.50;1.90;;;;;;;;;;4935665;29;20186;-67
2023/08/03 07:46:31;;;;;;;5.53;1.80;;;;;;;;;;4934912;29;20171;-68
2023/08/03 07:48:58;;;;;;;2.07;1.80;;;;;;;;;;4933769;29;20254;-67
2023/08/03 07:51:25;;;;;;;3.83;2.00;;;;;;;;;;4934868;29;20215;-68
2023/08/03 07:53:53;;;;;;;2.67;1.70;;;;;;;;;;4935402;29;20273;-68
2023/08/03 07:56:20;;;;;;;4.07;1.60;;;;;;;;;;4954035;29;20198;-68
2023/08/03 07:59:05;;;;;;;3.37;1.53;;;;;;;;;;4953760;29;20167;-68
2023/08/03 08:01:32;;;;;;;4.27;1.50;;;;;;;;;;4953785;28;20191;-68
2023/08/03 08:03:59;;;;;;;2.33;1.40;;;;;;;;;;4953436;29;20181;-66
2023/08/03 08:06:26;;;;;;;2.97;1.50;;;;;;;;;;4953712;29;20186;-66
2023/08/03 08:08:52;;;;;;;3.10;1.53;;;;;;;;;;4953958;29;20266;-67
2023/08/03 08:11:19;;;;;;;2.33;1.70;;;;;;;;;;4953612;29;20201;-66
2023/08/03 08:13:46;;;;;;;3.10;1.53;;;;;;;;;;4953371;29;20710;-67
2023/08/03 08:16:14;;;;;;;2.83;1.80;;;;;;;;;;4953526;29;20190;-66
2023/08/03 08:18:41;;;;;;;1.73;1.20;;;;;;;;;;4953669;29;20598;-66
2023/08/03 08:21:11;;;;;;;3.13;1.27;;;;;;;;;;4953549;29;20199;-66
2023/08/03 08:23:38;;;;;;;3.10;1.50;;;;;;;;;;4953911;29;20216;-66
2023/08/03 08:26:23;;;;;;;1.90;1.30;;;;;;;;;;4953467;29;20186;-67
2023/08/03 08:28:56;;;;;;;6.60;1.53;;;;;;;;;;4953088;29;20193;-67
2023/08/03 08:31:40;;;;;;;1.67;1.30;;;;;;;;;;4953435;29;20558;-67
2023/08/03 08:34:10;;;;;;;1.63;1.17;;;;;;;;;;4953141;29;20195;-67
2023/08/03 08:36:37;;;;;;;2.63;1.30;;;;;;;;;;4953446;29;20193;-67
2023/08/03 08:39:03;;;;;;;2.20;1.30;;;;;;;;;;4953342;29;20199;-67
2023/08/03 08:41:30;;;;;;;1.97;1.20;;;;;;;;;;4953492;29;20194;-67
2023/08/03 08:43:57;;;;;;;1.97;1.20;;;;;;;;;;4953012;29;20642;-67
2023/08/03 08:46:24;;;;;;;1.40;1.07;;;;;;;;;;4953071;29;20178;-67
2023/08/03 08:48:51;;;;;;;3.13;1.10;;;;;;;;;;4952874;29;20241;-67
2023/08/03 08:51:18;;;;;;;2.07;1.00;;;;;;;;;;4952957;29;20719;-67
2023/08/03 08:54:04;;;;;;;3.70;1.10;;;;;;;;;;4951104;29;20182;-67
2023/08/03 08:56:34;;;;;;;2.93;1.10;;;;;;;;;;4933994;29;20181;-67
2023/08/03 08:59:04;;;;;;;1.90;1.00;;;;;;;;;;4933430;29;20183;-67
2023/08/03 09:01:49;;;;;;;2.20;1.10;;;;;;;;;;4933619;29;20548;-67
2023/08/03 09:04:33;;;;;;;2.37;1.03;;;;;;;;;;4933432;29;20214;-67
2023/08/03 09:07:02;;;;;;;1.80;0.83;;;;;;;;;;4933758;29;20171;-68
2023/08/03 09:09:46;;;;;;;2.17;0.90;;;;;;;;;;4933326;29;20167;-67
2023/08/03 09:12:25;;;;;;;1.47;1.07;;;;;;;;;;4933200;29;20712;-67
2023/08/03 09:15:09;;;;;;;2.57;1.07;;;;;;;;;;4932632;29;20206;-67
2023/08/03 09:17:36;;;;;;;2.50;1.07;;;;;;;;;;4933613;29;20207;-67
2023/08/03 09:20:04;;;;;;;1.20;1.03;;;;;;;;;;4933340;29;20201;-68
2023/08/03 09:22:40;;;;;;;3.43;1.20;;;;;;;;;;4933482;29;20194;-68
2023/08/03 09:25:24;;;;;;;2.07;0.97;;;;;;;;;;4918963;29;20246;-67
2023/08/03 09:28:06;;;;;;;2.47;1.00;;;;;;;;;;4918404;29;20202;-67
2023/08/03 09:30:35;;;;;;;2.13;0.90;;;;;;;;;;4916703;29;20195;-67
2023/08/03 09:33:12;;;;;;;3.13;1.00;;;;;;;;;;4930620;29;20224;-67
2023/08/03 09:36:10;;;;;;;3.37;0.97;;;;;;;;;;5107776;27;20542;-67
2023/08/03 09:38:40;;;;;;;1.20;0.83;;;;;;;;;;5106759;28;20193;-66
2023/08/03 09:41:31;;;;;;;2.83;1.03;;;;;;;;;;5107344;28;20176;-67
2023/08/03 09:44:18;;;;;;;3.27;1.23;;;;;;;;;;5107609;28;20293;-68
2023/08/03 09:47:05;;;;;;;3.23;0.90;;;;;;;;;;5107382;28;21030;-68
2023/08/03 09:49:32;;;;;;;1.93;1.00;;;;;;;;;;5105874;28;20729;-67
2023/08/03 09:52:10;;;;;;;3.23;0.97;;;;;;;;;;5105808;28;20184;-67
2023/08/03 09:54:39;;;;;;;3.47;1.10;;;;;;;;;;5105760;28;20697;-67
2023/08/03 09:57:24;;;;;;;2.87;1.00;;;;;;;;;;5105945;28;20242;-67
2023/08/03 09:59:58;;;;;;;1.93;1.10;;;;;;;;;;5105956;28;20192;-69
2023/08/03 10:02:26;;;;;;;3.60;0.83;;;;;;;;;;5105664;28;20692;-68
2023/08/03 10:04:55;;;;;;;2.80;1.10;;;;;;;;;;5106661;28;20303;-67
2023/08/03 10:07:23;;;;;;;1.87;1.00;;;;;;;;;;5105887;28;20279;-67
2023/08/03 10:10:07;;;;;;;4.23;1.47;;;;;;;;;;5091232;28;20720;-68
2023/08/03 10:12:35;;;;;;;3.03;1.30;;;;;;;;;;5106581;28;20193;-68
2023/08/03 10:15:20;;;;;;;4.77;1.30;;;;;;;;;;5105704;28;20204;-67
2023/08/03 10:17:47;;;;;;;2.80;1.30;;;;;;;;;;5106909;28;20246;-67
2023/08/03 10:20:31;;;;;;;4.00;1.17;;;;;;;;;;5105645;28;20169;-68
2023/08/03 10:23:17;;;;;;;2.27;1.10;;;;;;;;;;5106698;28;20713;-68
2023/08/03 10:26:04;;;;;;;2.13;1.10;;;;;;;;;;5105329;28;20158;-67
2023/08/03 10:28:39;;;;;;;4.13;0.90;;;;;;;;;;5105150;28;20584;-67
2023/08/03 10:31:10;;;;;;;2.87;1.00;;;;;;;;;;5106359;28;20211;-68
2023/08/03 10:33:46;;;;;;;3.63;1.00;;;;;;;;;;5106463;28;20282;-68
2023/08/03 10:36:28;;;;;;;2.57;0.97;;;;;;;;;;5126499;28;20274;-68
2023/08/03 10:39:00;;;;;;;3.07;1.30;;;;;;;;;;5127017;28;20245;-67
2023/08/03 10:41:27;;;;;;;3.63;1.00;;;;;;;;;;5126136;28;20743;-67
2023/08/03 10:44:05;;;;;;;2.43;1.10;;;;;;;;;;5126481;28;20184;-68
2023/08/03 10:46:33;;;;;;;1.33;0.90;;;;;;;;;;5117719;28;20176;-67
2023/08/03 10:49:21;;;;;;;1.97;1.17;;;;;;;;;;5112846;28;20287;-67
2023/08/03 10:52:16;;;;;;;2.60;1.20;;;;;;;;;;5092974;28;20781;-67
2023/08/03 10:54:43;;;;;;;3.90;1.10;;;;;;;;;;5105197;28;20208;-67
2023/08/03 10:57:11;;;;;;;3.80;0.90;;;;;;;;;;5092253;28;20219;-67
2023/08/03 10:59:39;;;;;;;3.97;1.40;;;;;;;;;;5092781;28;20528;-67
2023/08/03 11:02:13;;;;;;;4.40;0.93;;;;;;;;;;5091900;28;20216;-68
2023/08/03 11:04:40;;;;;;;1.43;0.90;;;;;;;;;;5092326;28;20185;-67
2023/08/03 11:07:10;;;;;;;1.50;1.00;;;;;;;;;;5092027;28;20178;-67
2023/08/03 11:09:37;;;;;;;2.67;1.00;;;;;;;;;;5092309;28;20660;-67
2023/08/03 11:12:06;;;;;;;2.70;1.10;;;;;;;;;;5092046;28;20178;-67
2023/08/03 11:14:36;;;;;;;2.87;0.90;;;;;;;;;;5074717;28;20219;-67
2023/08/03 11:17:06;;;;;;;3.13;0.80;;;;;;;;;;5074307;28;20178;-67
2023/08/03 11:19:37;;;;;;;4.17;1.00;;;;;;;;;;5074112;28;20201;-67
2023/08/03 11:22:04;;;;;;;2.23;1.03;;;;;;;;;;5091680;28;20231;-67
2023/08/03 11:24:31;;;;;;;3.57;1.30;;;;;;;;;;5091840;28;20246;-67
2023/08/03 11:26:58;;;;;;;2.70;1.13;;;;;;;;;;5073699;28;20288;-67
2023/08/03 11:29:25;;;;;;;2.33;1.10;;;;;;;;;;5073729;28;20242;-66
2023/08/03 11:31:52;;;;;;;4.73;0.97;;;;;;;;;;5091648;28;20189;-67
2023/08/03 11:34:36;;;;;;;3.43;1.07;;;;;;;;;;5091321;28;20704;-67
2023/08/03 11:37:03;;;;;;;3.20;0.90;;;;;;;;;;5091639;28;20283;-67
2023/08/03 11:39:47;;;;;;;3.70;1.40;;;;;;;;;;5091546;28;20161;-67
2023/08/03 11:42:13;;;;;;;3.10;1.30;;;;;;;;;;5091126;28;20173;-67
2023/08/03 11:44:40;;;;;;;3.83;1.17;;;;;;;;;;5091779;28;20193;-67
2023/08/03 11:47:22;;;;;;;2.83;1.20;;;;;;;;;;5075516;28;20280;-67
2023/08/03 11:49:49;;;;;;;5.87;1.20;;;;;;;;;;5091081;28;20197;-67
2023/08/03 11:52:18;;;;;;;2.90;1.10;;;;;;;;;;5090658;28;20261;-67
2023/08/03 11:54:45;;;;;;;2.17;1.10;;;;;;;;;;5098608;28;20253;-67
2023/08/03 11:59:57;;;;;;;4.43;0.90;;;;;;;;;;5111651;28;20189;-68
2023/08/03 12:02:39;;;;;;;3.67;1.03;;;;;;;;;;5111050;28;20216;-67
2023/08/03 12:05:06;;;;;;;7.63;1.17;;;;;;;;;;5111186;28;20176;-69
2023/08/03 12:07:51;;;;;;;3.30;1.13;;;;;;;;;;5094526;28;20181;-68
2023/08/03 12:10:21;;;;;;;2.83;1.00;;;;;;;;;;5111092;28;20180;-67
2023/08/03 12:12:48;;;;;;;4.13;1.00;;;;;;;;;;5111017;28;20184;-68
2023/08/03 12:15:15;;;;;;;2.67;1.00;;;;;;;;;;5110754;28;20189;-69
2023/08/03 12:17:41;;;;;;;4.37;1.07;;;;;;;;;;5111359;28;20188;-68
2023/08/03 12:20:26;;;;;;;4.67;1.43;;;;;;;;;;5111070;28;20176;-67
2023/08/03 12:22:53;;;;;;;5.20;1.37;;;;;;;;;;5110814;28;20199;-68
2023/08/03 12:25:37;;;;;;;4.83;1.40;;;;;;;;;;5095749;28;20565;-68
2023/08/03 12:28:08;;;;;;;3.90;1.07;;;;;;;;;;5110477;28;20192;-68
2023/08/03 12:30:36;;;;;;;1.20;0.90;;;;;;;;;;5092893;28;20820;-68
2023/08/03 12:33:03;;;;;;;3.83;1.30;;;;;;;;;;5110922;28;20291;-68
2023/08/03 12:35:30;;;;;;;5.77;1.30;;;;;;;;;;5075816;28;20235;-68
2023/08/03 12:37:57;;;;;;;5.83;1.30;;;;;;;;;;5110505;28;20287;-68
2023/08/03 12:40:25;;;;;;;2.47;0.93;;;;;;;;;;5110359;28;20197;-68
2023/08/03 12:42:52;;;;;;;3.97;1.10;;;;;;;;;;5092520;28;20208;-68
2023/08/03 12:45:36;;;;;;;3.97;1.20;;;;;;;;;;5106666;28;20182;-68
2023/08/03 12:48:03;;;;;;;3.97;1.27;;;;;;;;;;5090185;28;20212;-68
2023/08/03 12:50:47;;;;;;;3.23;1.30;;;;;;;;;;5090206;28;20521;-67
2023/08/03 12:53:13;;;;;;;4.00;1.30;;;;;;;;;;5089714;28;20185;-68
2023/08/03 12:55:40;;;;;;;1.97;0.57;;;;;;;;;;5074485;28;20616;-68
2023/08/03 12:58:08;;;;;;;0.90;0.50;;;;;;;;;;5069580;28;20209;-68
2023/08/03 13:00:34;;;;;;;0.60;0.40;;;;;;;;;;5069357;28;20183;-68
2023/08/03 13:03:09;;;;;;;3.30;0.70;;;;;;;;;;5069755;28;20221;-68
2023/08/03 13:09:29;;;;;;;4.20;1.20;;;;;;;;;;5069381;28;20239;-67
2023/08/03 13:11:59;;;;;;;3.93;1.00;;;;;;;;;;5069236;28;20189;-67
2023/08/03 13:14:26;;;;;;;3.53;0.70;;;;;;;;;;5069401;28;20247;-66
2023/08/03 13:16:54;;;;;;;2.43;0.80;;;;;;;;;;5069257;28;20202;-66
2023/08/03 13:19:21;;;;;;;3.43;1.10;;;;;;;;;;5069415;28;20186;-68
2023/08/03 13:21:48;;;;;;;3.87;1.00;;;;;;;;;;5069330;28;20197;-68
2023/08/03 13:24:17;;;;;;;6.13;1.20;;;;;;;;;;5069219;28;20190;-68
2023/08/03 13:26:44;;;;;;;5.30;1.17;;;;;;;;;;5069552;28;20666;-67
2023/08/03 13:29:14;;;;;;;2.90;0.90;;;;;;;;;;5051197;28;20218;-67
2023/08/03 13:31:41;;;;;;;4.83;1.00;;;;;;;;;;5069728;28;20186;-66
2023/08/03 13:34:08;;;;;;;2.20;1.13;;;;;;;;;;5069154;28;20250;-67
2023/08/03 13:36:36;;;;;;;3.70;1.27;;;;;;;;;;5051253;28;20235;-66
2023/08/03 13:39:03;;;;;;;5.40;1.30;;;;;;;;;;5070146;28;20615;-65
2023/08/03 13:41:31;;;;;;;1.73;1.00;;;;;;;;;;5070920;28;20190;-66
2023/08/03 13:43:58;;;;;;;2.00;0.90;;;;;;;;;;5070584;28;20276;-67
2023/08/03 13:46:25;;;;;;;2.23;0.93;;;;;;;;;;5069492;28;20175;-66
2023/08/03 13:48:54;;;;;;;2.83;1.00;;;;;;;;;;5068934;28;20217;-67
2023/08/03 13:51:20;;;;;;;1.70;0.83;;;;;;;;;;5069140;28;20511;-67
2023/08/03 13:53:47;;;;;;;3.40;1.20;;;;;;;;;;5069243;28;20218;-67
2023/08/03 13:56:21;;;;;;;2.83;0.90;;;;;;;;;;5089318;28;20212;-67
2023/08/03 13:58:58;;;;;;;2.13;1.10;;;;;;;;;;5072745;28;20203;-67
2023/08/03 14:01:25;;;;;;;2.87;1.20;;;;;;;;;;5088945;28;20185;-67
2023/08/03 14:04:02;;;;;;;3.60;1.00;;;;;;;;;;5089022;28;20178;-67
2023/08/03 14:06:47;;;;;;;1.33;0.90;;;;;;;;;;5089262;28;20166;-67
2023/08/03 14:09:17;;;;;;;1.93;0.90;;;;;;;;;;5088882;28;20284;-67
2023/08/03 14:11:45;;;;;;;2.90;0.80;;;;;;;;;;5089236;28;20186;-68
2023/08/03 14:14:14;;;;;;;1.53;0.90;;;;;;;;;;5071495;28;20667;-67
2023/08/03 14:16:48;;;;;;;1.23;0.70;;;;;;;;;;5089064;28;20267;-67
2023/08/03 14:19:22;;;;;;;4.20;1.03;;;;;;;;;;5088993;28;20193;-67
2023/08/03 14:21:49;;;;;;;1.37;0.93;;;;;;;;;;5091323;28;20181;-67
2023/08/03 14:24:21;;;;;;;4.20;1.13;;;;;;;;;;5092661;28;20173;-67
2023/08/03 14:26:50;;;;;;;2.10;1.10;;;;;;;;;;5093227;28;20193;-67
2023/08/03 14:29:17;;;;;;;1.90;1.20;;;;;;;;;;5092785;28;20209;-67
2023/08/03 14:31:44;;;;;;;1.93;0.90;;;;;;;;;;5092619;28;20190;-68
2023/08/03 14:34:11;;;;;;;2.00;1.00;;;;;;;;;;5092557;28;20232;-67
2023/08/03 14:36:55;;;;;;;1.87;0.90;;;;;;;;;;5092495;28;20656;-67
2023/08/03 14:39:22;;;;;;;2.63;1.23;;;;;;;;;;5092439;28;20308;-67
2023/08/03 14:41:49;;;;;;;1.37;1.00;;;;;;;;;;5092908;28;20178;-67
2023/08/03 14:44:16;;;;;;;1.63;1.20;;;;;;;;;;5092361;28;20196;-67
2023/08/03 14:46:45;;;;;;;2.23;0.97;;;;;;;;;;5092584;28;20178;-67
2023/08/03 14:49:12;;;;;;;5.33;1.20;;;;;;;;;;5091952;28;20193;-68
2023/08/03 14:51:39;;;;;;;1.33;1.00;;;;;;;;;;5092568;28;20193;-67
2023/08/03 14:54:09;;;;;;;3.40;1.20;;;;;;;;;;5089460;28;20257;-67
2023/08/03 14:56:36;;;;;;;2.93;1.10;;;;;;;;;;5054511;28;20206;-67
2023/08/03 14:59:03;;;;;;;2.50;1.23;;;;;;;;;;5071596;28;20533;-67
2023/08/03 15:01:30;;;;;;;2.43;1.20;;;;;;;;;;5072062;28;20192;-68
2023/08/03 15:03:58;;;;;;;2.53;1.20;;;;;;;;;;5071649;28;20202;-68
2023/08/03 15:06:30;;;;;;;3.13;1.20;;;;;;;;;;5071898;28;20285;-68
2023/08/03 15:08:57;;;;;;;2.40;1.27;;;;;;;;;;5072258;28;20527;-68
2023/08/03 15:11:25;;;;;;;3.13;1.80;;;;;;;;;;5054192;28;20210;-68
2023/08/03 15:13:52;;;;;;;3.20;1.47;;;;;;;;;;5071386;28;20190;-68
2023/08/03 15:16:36;;;;;;;3.50;1.23;;;;;;;;;;5071683;28;20201;-68
2023/08/03 15:19:03;;;;;;;2.80;1.23;;;;;;;;;;5071305;28;20190;-67
2023/08/03 15:21:33;;;;;;;2.23;1.20;;;;;;;;;;5071579;28;20186;-68
2023/08/03 15:24:01;;;;;;;3.23;1.23;;;;;;;;;;5053827;28;20198;-68
2023/08/03 15:26:29;;;;;;;3.60;1.40;;;;;;;;;;5071660;28;20239;-67
2023/08/03 15:29:01;;;;;;;3.07;0.90;;;;;;;;;;5071020;28;20190;-67
2023/08/03 15:31:29;;;;;;;2.60;1.40;;;;;;;;;;5071282;28;20201;-67
2023/08/03 15:34:14;;;;;;;3.90;0.90;;;;;;;;;;5070927;28;20228;-67
2023/08/03 15:36:42;;;;;;;2.73;1.30;;;;;;;;;;5071377;28;20324;-67
2023/08/03 15:39:26;;;;;;;2.67;1.37;;;;;;;;;;5070951;28;20228;-67
2023/08/03 15:41:55;;;;;;;1.97;0.90;;;;;;;;;;5071211;28;20683;-67
2023/08/03 15:44:25;;;;;;;2.43;0.93;;;;;;;;;;5070856;28;20174;-67
2023/08/03 15:46:56;;;;;;;2.57;1.00;;;;;;;;;;5071012;28;20637;-67